sensor_id;sensor_type;location;lat;lon;timestamp;temperature;humidity
28654;DHT22;24320;56.980;24.336;2023-08-06T00:01:49;17.80;99.90
28654;DHT22;24320;56.980;24.336;2023-08-06T00:04:17;17.80;99.90
28654;DHT22;24320;56.980;24.336;2023-08-06T00:06:44;17.80;99.90
28654;DHT22;24320;56.980;24.336;2023-08-06T00:09:11;17.80;99.90
28654;DHT22;24320;56.980;24.336;2023-08-06T00:11:38;17.80;99.90
28654;DHT22;24320;56.980;24.336;2023-08-06T00:14:05;17.80;99.90
28654;DHT22;24320;56.980;24.336;2023-08-06T00:16:32;17.70;99.90
28654;DHT22;24320;56.980;24.336;2023-08-06T00:18:59;17.70;99.90
28654;DHT22;24320;56.980;24.336;2023-08-06T00:21:26;17.70;99.90
28654;DHT22;24320;56.980;24.336;2023-08-06T00:23:52;17.60;99.90
28654;DHT22;24320;56.980;24.336;2023-08-06T00:26:19;17.60;99.90
28654;DHT22;24320;56.980;24.336;2023-08-06T00:28:46;17.60;99.90
28654;DHT22;24320;56.980;24.336;2023-08-06T00:31:13;17.60;99.90
28654;DHT22;24320;56.980;24.336;2023-08-06T00:33:40;17.70;99.90
28654;DHT22;24320;56.980;24.336;2023-08-06T00:36:07;17.70;99.90
28654;DHT22;24320;56.980;24.336;2023-08-06T00:38:34;17.70;99.90
28654;DHT22;24320;56.980;24.336;2023-08-06T00:41:01;17.80;99.90
28654;DHT22;24320;56.980;24.336;2023-08-06T00:43:28;17.80;99.90
28654;DHT22;24320;56.980;24.336;2023-08-06T00:45:55;17.80;99.90
28654;DHT22;24320;56.980;24.336;2023-08-06T00:48:22;17.80;99.90
28654;DHT22;24320;56.980;24.336;2023-08-06T00:50:49;17.70;99.90
28654;DHT22;24320;56.980;24.336;2023-08-06T00:53:16;17.70;99.90
28654;DHT22;24320;56.980;24.336;2023-08-06T00:55:44;17.70;99.90
28654;DHT22;24320;56.980;24.336;2023-08-06T00:58:13;17.70;99.90
28654;DHT22;24320;56.980;24.336;2023-08-06T01:00:41;17.80;99.90
28654;DHT22;24320;56.980;24.336;2023-08-06T01:03:08;17.70;99.90
28654;DHT22;24320;56.980;24.336;2023-08-06T01:05:35;17.80;99.90
28654;DHT22;24320;56.980;24.336;2023-08-06T01:11:59;17.70;99.90
28654;DHT22;24320;56.980;24.336;2023-08-06T01:14:12;17.70;99.90
28654;DHT22;24320;56.980;24.336;2023-08-06T01:16:42;17.70;99.90
28654;DHT22;24320;56.980;24.336;2023-08-06T01:19:19;17.70;99.90
28654;DHT22;24320;56.980;24.336;2023-08-06T01:21:46;17.80;99.90
28654;DHT22;24320;56.980;24.336;2023-08-06T01:24:13;17.80;99.90
28654;DHT22;24320;56.980;24.336;2023-08-06T01:29:34;17.80;99.90
28654;DHT22;24320;56.980;24.336;2023-08-06T01:32:02;17.80;99.90
28654;DHT22;24320;56.980;24.336;2023-08-06T01:34:32;17.80;99.90
28654;DHT22;24320;56.980;24.336;2023-08-06T01:37:01;17.80;99.90
28654;DHT22;24320;56.980;24.336;2023-08-06T01:39:28;17.80;99.90
28654;DHT22;24320;56.980;24.336;2023-08-06T01:41:55;17.90;99.90
28654;DHT22;24320;56.980;24.336;2023-08-06T01:44:22;17.80;99.90
28654;DHT22;24320;56.980;24.336;2023-08-06T01:46:49;17.80;99.90
28654;DHT22;24320;56.980;24.336;2023-08-06T01:49:16;17.80;99.90
28654;DHT22;24320;56.980;24.336;2023-08-06T01:51:43;17.80;99.90
28654;DHT22;24320;56.980;24.336;2023-08-06T01:54:10;17.90;99.90
28654;DHT22;24320;56.980;24.336;2023-08-06T01:56:37;17.90;99.90
28654;DHT22;24320;56.980;24.336;2023-08-06T01:59:03;17.90;99.90
28654;DHT22;24320;56.980;24.336;2023-08-06T02:01:31;17.90;99.90
28654;DHT22;24320;56.980;24.336;2023-08-06T02:03:58;17.90;99.90
28654;DHT22;24320;56.980;24.336;2023-08-06T02:06:25;18.00;99.90
28654;DHT22;24320;56.980;24.336;2023-08-06T02:08:52;18.00;99.90
28654;DHT22;24320;56.980;24.336;2023-08-06T02:11:19;18.00;99.90
28654;DHT22;24320;56.980;24.336;2023-08-06T02:13:46;18.00;99.90
28654;DHT22;24320;56.980;24.336;2023-08-06T02:16:13;18.00;99.90
28654;DHT22;24320;56.980;24.336;2023-08-06T02:18:40;18.00;99.90
28654;DHT22;24320;56.980;24.336;2023-08-06T02:21:07;18.00;99.90
28654;DHT22;24320;56.980;24.336;2023-08-06T02:23:34;18.10;99.90
28654;DHT22;24320;56.980;24.336;2023-08-06T02:26:02;18.00;99.90
28654;DHT22;24320;56.980;24.336;2023-08-06T02:28:32;18.00;99.90
28654;DHT22;24320;56.980;24.336;2023-08-06T02:30:59;18.00;99.90
28654;DHT22;24320;56.980;24.336;2023-08-06T02:33:26;18.10;99.90
28654;DHT22;24320;56.980;24.336;2023-08-06T02:36:03;18.10;99.90
28654;DHT22;24320;56.980;24.336;2023-08-06T02:38:31;18.10;99.90
28654;DHT22;24320;56.980;24.336;2023-08-06T02:41:02;18.10;99.90
28654;DHT22;24320;56.980;24.336;2023-08-06T02:43:29;18.10;99.90
28654;DHT22;24320;56.980;24.336;2023-08-06T02:45:59;18.10;99.90
28654;DHT22;24320;56.980;24.336;2023-08-06T02:48:27;18.10;99.90
28654;DHT22;24320;56.980;24.336;2023-08-06T02:50:57;18.10;99.90
28654;DHT22;24320;56.980;24.336;2023-08-06T02:53:26;18.10;99.90
28654;DHT22;24320;56.980;24.336;2023-08-06T02:55:53;18.10;99.90
28654;DHT22;24320;56.980;24.336;2023-08-06T02:58:20;18.20;99.90
28654;DHT22;24320;56.980;24.336;2023-08-06T03:01:19;18.20;99.90
28654;DHT22;24320;56.980;24.336;2023-08-06T03:03:46;18.20;99.90
28654;DHT22;24320;56.980;24.336;2023-08-06T03:06:13;18.20;99.90
28654;DHT22;24320;56.980;24.336;2023-08-06T03:08:40;18.30;99.90
28654;DHT22;24320;56.980;24.336;2023-08-06T03:11:07;18.20;99.90
28654;DHT22;24320;56.980;24.336;2023-08-06T03:13:34;18.20;99.90
28654;DHT22;24320;56.980;24.336;2023-08-06T03:16:03;18.20;99.90
28654;DHT22;24320;56.980;24.336;2023-08-06T03:18:30;18.20;99.90
28654;DHT22;24320;56.980;24.336;2023-08-06T03:20:57;18.20;99.90
28654;DHT22;24320;56.980;24.336;2023-08-06T03:23:24;18.20;99.90
28654;DHT22;24320;56.980;24.336;2023-08-06T03:25:51;18.20;99.90
28654;DHT22;24320;56.980;24.336;2023-08-06T03:28:19;18.20;99.90
28654;DHT22;24320;56.980;24.336;2023-08-06T03:30:46;18.30;99.90
28654;DHT22;24320;56.980;24.336;2023-08-06T03:33:14;18.30;99.90
28654;DHT22;24320;56.980;24.336;2023-08-06T03:35:41;18.30;99.90
28654;DHT22;24320;56.980;24.336;2023-08-06T03:38:08;18.30;99.90
28654;DHT22;24320;56.980;24.336;2023-08-06T03:40:35;18.40;99.90
28654;DHT22;24320;56.980;24.336;2023-08-06T03:43:03;18.40;99.90
28654;DHT22;24320;56.980;24.336;2023-08-06T03:45:30;18.50;99.90
28654;DHT22;24320;56.980;24.336;2023-08-06T03:47:58;18.50;99.90
28654;DHT22;24320;56.980;24.336;2023-08-06T03:50:25;18.50;99.90
28654;DHT22;24320;56.980;24.336;2023-08-06T03:52:52;18.50;99.90
28654;DHT22;24320;56.980;24.336;2023-08-06T03:55:19;18.50;99.90
28654;DHT22;24320;56.980;24.336;2023-08-06T03:57:46;18.60;99.90
28654;DHT22;24320;56.980;24.336;2023-08-06T04:00:15;18.60;99.90
28654;DHT22;24320;56.980;24.336;2023-08-06T04:02:42;18.60;99.90
28654;DHT22;24320;56.980;24.336;2023-08-06T04:05:11;18.60;99.90
28654;DHT22;24320;56.980;24.336;2023-08-06T04:10:14;18.70;99.90
28654;DHT22;24320;56.980;24.336;2023-08-06T04:12:41;18.70;99.90
28654;DHT22;24320;56.980;24.336;2023-08-06T04:15:08;18.70;99.90
28654;DHT22;24320;56.980;24.336;2023-08-06T04:17:35;18.70;99.90
28654;DHT22;24320;56.980;24.336;2023-08-06T04:20:03;18.70;99.90
28654;DHT22;24320;56.980;24.336;2023-08-06T04:22:30;18.70;99.90
28654;DHT22;24320;56.980;24.336;2023-08-06T04:24:57;18.70;99.90
28654;DHT22;24320;56.980;24.336;2023-08-06T04:27:24;18.70;99.90
28654;DHT22;24320;56.980;24.336;2023-08-06T04:29:51;18.80;99.90
28654;DHT22;24320;56.980;24.336;2023-08-06T04:32:17;18.80;99.90
28654;DHT22;24320;56.980;24.336;2023-08-06T04:34:46;18.80;99.90
28654;DHT22;24320;56.980;24.336;2023-08-06T04:37:13;18.90;99.90
28654;DHT22;24320;56.980;24.336;2023-08-06T04:39:40;18.90;99.90
28654;DHT22;24320;56.980;24.336;2023-08-06T04:42:07;18.90;99.90
28654;DHT22;24320;56.980;24.336;2023-08-06T04:44:34;18.90;99.90
28654;DHT22;24320;56.980;24.336;2023-08-06T04:47:01;19.00;99.90
28654;DHT22;24320;56.980;24.336;2023-08-06T04:49:28;19.00;99.90
28654;DHT22;24320;56.980;24.336;2023-08-06T04:51:55;19.10;99.90
28654;DHT22;24320;56.980;24.336;2023-08-06T04:54:22;19.20;99.90
28654;DHT22;24320;56.980;24.336;2023-08-06T04:56:49;19.30;99.90
28654;DHT22;24320;56.980;24.336;2023-08-06T04:59:16;19.30;99.90
28654;DHT22;24320;56.980;24.336;2023-08-06T05:01:46;19.40;99.90
28654;DHT22;24320;56.980;24.336;2023-08-06T05:04:19;19.40;99.90
28654;DHT22;24320;56.980;24.336;2023-08-06T05:06:47;19.50;99.90
28654;DHT22;24320;56.980;24.336;2023-08-06T05:09:14;19.60;99.90
28654;DHT22;24320;56.980;24.336;2023-08-06T05:11:41;19.80;99.90
28654;DHT22;24320;56.980;24.336;2023-08-06T05:14:08;20.00;99.90
28654;DHT22;24320;56.980;24.336;2023-08-06T05:16:35;20.20;99.90
28654;DHT22;24320;56.980;24.336;2023-08-06T05:19:02;20.70;99.90
28654;DHT22;24320;56.980;24.336;2023-08-06T05:21:29;21.10;99.90
28654;DHT22;24320;56.980;24.336;2023-08-06T05:23:56;21.40;99.90
28654;DHT22;24320;56.980;24.336;2023-08-06T05:26:23;21.60;99.90
28654;DHT22;24320;56.980;24.336;2023-08-06T05:28:50;21.60;99.90
28654;DHT22;24320;56.980;24.336;2023-08-06T05:31:17;21.70;99.90
28654;DHT22;24320;56.980;24.336;2023-08-06T05:33:44;21.90;99.90
28654;DHT22;24320;56.980;24.336;2023-08-06T05:36:11;22.20;99.90
28654;DHT22;24320;56.980;24.336;2023-08-06T05:38:38;22.40;99.90
28654;DHT22;24320;56.980;24.336;2023-08-06T05:41:05;22.40;99.90
28654;DHT22;24320;56.980;24.336;2023-08-06T05:43:32;22.40;99.90
28654;DHT22;24320;56.980;24.336;2023-08-06T05:45:59;22.50;99.90
28654;DHT22;24320;56.980;24.336;2023-08-06T05:48:26;22.50;99.90
28654;DHT22;24320;56.980;24.336;2023-08-06T05:51:00;22.60;99.90
28654;DHT22;24320;56.980;24.336;2023-08-06T05:53:27;22.70;99.90
28654;DHT22;24320;56.980;24.336;2023-08-06T05:55:54;22.60;99.90
28654;DHT22;24320;56.980;24.336;2023-08-06T05:58:21;22.50;99.90
28654;DHT22;24320;56.980;24.336;2023-08-06T06:00:48;22.40;99.90
28654;DHT22;24320;56.980;24.336;2023-08-06T06:03:15;22.30;99.90
28654;DHT22;24320;56.980;24.336;2023-08-06T06:08:45;22.20;99.90
28654;DHT22;24320;56.980;24.336;2023-08-06T06:11:12;22.30;99.90
28654;DHT22;24320;56.980;24.336;2023-08-06T06:13:39;22.30;99.90
28654;DHT22;24320;56.980;24.336;2023-08-06T06:16:06;22.40;99.90
28654;DHT22;24320;56.980;24.336;2023-08-06T06:18:33;22.40;99.90
28654;DHT22;24320;56.980;24.336;2023-08-06T06:21:00;22.40;99.90
28654;DHT22;24320;56.980;24.336;2023-08-06T06:23:27;22.50;99.90
28654;DHT22;24320;56.980;24.336;2023-08-06T06:25:54;22.50;99.90
28654;DHT22;24320;56.980;24.336;2023-08-06T06:28:22;22.60;99.90
28654;DHT22;24320;56.980;24.336;2023-08-06T06:30:49;22.80;99.90
28654;DHT22;24320;56.980;24.336;2023-08-06T06:33:16;23.00;99.90
28654;DHT22;24320;56.980;24.336;2023-08-06T06:35:43;23.10;99.90
28654;DHT22;24320;56.980;24.336;2023-08-06T06:38:17;23.20;99.90
28654;DHT22;24320;56.980;24.336;2023-08-06T06:40:53;23.20;99.90
28654;DHT22;24320;56.980;24.336;2023-08-06T06:43:20;23.30;99.90
28654;DHT22;24320;56.980;24.336;2023-08-06T06:45:51;23.50;99.90
28654;DHT22;24320;56.980;24.336;2023-08-06T06:48:19;23.70;99.90
28654;DHT22;24320;56.980;24.336;2023-08-06T06:50:48;23.90;99.90
28654;DHT22;24320;56.980;24.336;2023-08-06T06:53:15;23.80;99.90
28654;DHT22;24320;56.980;24.336;2023-08-06T06:55:42;23.80;99.90
28654;DHT22;24320;56.980;24.336;2023-08-06T06:58:09;23.80;99.90
28654;DHT22;24320;56.980;24.336;2023-08-06T07:00:37;24.00;99.90
28654;DHT22;24320;56.980;24.336;2023-08-06T07:03:04;24.00;99.90
28654;DHT22;24320;56.980;24.336;2023-08-06T07:05:31;24.20;99.90
28654;DHT22;24320;56.980;24.336;2023-08-06T07:07:59;24.30;99.90
28654;DHT22;24320;56.980;24.336;2023-08-06T07:10:26;24.60;99.90
28654;DHT22;24320;56.980;24.336;2023-08-06T07:12:53;24.80;99.90
28654;DHT22;24320;56.980;24.336;2023-08-06T07:15:21;25.10;99.90
28654;DHT22;24320;56.980;24.336;2023-08-06T07:17:48;25.40;99.90
28654;DHT22;24320;56.980;24.336;2023-08-06T07:20:15;25.60;99.90
28654;DHT22;24320;56.980;24.336;2023-08-06T07:22:42;25.80;99.90
28654;DHT22;24320;56.980;24.336;2023-08-06T07:25:09;26.20;99.90
28654;DHT22;24320;56.980;24.336;2023-08-06T07:27:36;26.40;99.90
28654;DHT22;24320;56.980;24.336;2023-08-06T07:30:04;26.50;99.90
28654;DHT22;24320;56.980;24.336;2023-08-06T07:32:32;26.70;99.90
28654;DHT22;24320;56.980;24.336;2023-08-06T07:34:59;26.90;99.90
28654;DHT22;24320;56.980;24.336;2023-08-06T07:37:27;27.20;99.90
28654;DHT22;24320;56.980;24.336;2023-08-06T07:39:55;27.50;99.90
28654;DHT22;24320;56.980;24.336;2023-08-06T07:42:22;27.50;99.90
28654;DHT22;24320;56.980;24.336;2023-08-06T07:44:57;27.20;99.90
28654;DHT22;24320;56.980;24.336;2023-08-06T07:47:25;27.00;99.90
28654;DHT22;24320;56.980;24.336;2023-08-06T07:49:52;27.00;99.90
28654;DHT22;24320;56.980;24.336;2023-08-06T07:52:19;27.00;99.90
28654;DHT22;24320;56.980;24.336;2023-08-06T07:54:46;27.30;99.90
28654;DHT22;24320;56.980;24.336;2023-08-06T07:57:13;27.60;99.90
28654;DHT22;24320;56.980;24.336;2023-08-06T07:59:41;27.80;99.90
28654;DHT22;24320;56.980;24.336;2023-08-06T08:02:08;28.10;99.90
28654;DHT22;24320;56.980;24.336;2023-08-06T08:04:36;28.30;99.90
28654;DHT22;24320;56.980;24.336;2023-08-06T08:07:04;28.30;99.90
28654;DHT22;24320;56.980;24.336;2023-08-06T08:09:34;28.40;99.90
28654;DHT22;24320;56.980;24.336;2023-08-06T08:12:02;28.60;99.90
28654;DHT22;24320;56.980;24.336;2023-08-06T08:14:29;28.50;99.90
28654;DHT22;24320;56.980;24.336;2023-08-06T08:17:03;28.50;99.90
28654;DHT22;24320;56.980;24.336;2023-08-06T08:19:30;28.40;99.90
28654;DHT22;24320;56.980;24.336;2023-08-06T08:21:57;28.30;99.90
28654;DHT22;24320;56.980;24.336;2023-08-06T08:24:24;28.20;99.90
28654;DHT22;24320;56.980;24.336;2023-08-06T08:26:52;28.00;99.90
28654;DHT22;24320;56.980;24.336;2023-08-06T08:29:20;28.00;99.90
28654;DHT22;24320;56.980;24.336;2023-08-06T08:31:49;27.80;99.90
28654;DHT22;24320;56.980;24.336;2023-08-06T08:34:17;27.80;99.90
28654;DHT22;24320;56.980;24.336;2023-08-06T08:36:44;27.80;99.90
28654;DHT22;24320;56.980;24.336;2023-08-06T08:39:14;27.80;99.90
28654;DHT22;24320;56.980;24.336;2023-08-06T08:41:42;27.90;99.90
28654;DHT22;24320;56.980;24.336;2023-08-06T08:44:10;28.00;99.90
28654;DHT22;24320;56.980;24.336;2023-08-06T08:46:40;28.00;99.90
28654;DHT22;24320;56.980;24.336;2023-08-06T08:49:07;27.90;99.90
28654;DHT22;24320;56.980;24.336;2023-08-06T08:51:34;27.90;99.90
28654;DHT22;24320;56.980;24.336;2023-08-06T08:54:05;28.00;99.90
28654;DHT22;24320;56.980;24.336;2023-08-06T08:56:34;28.10;99.90
28654;DHT22;24320;56.980;24.336;2023-08-06T08:59:02;27.90;99.90
28654;DHT22;24320;56.980;24.336;2023-08-06T09:01:29;28.00;99.90
28654;DHT22;24320;56.980;24.336;2023-08-06T09:03:57;28.10;99.90
28654;DHT22;24320;56.980;24.336;2023-08-06T09:06:26;28.10;99.90
28654;DHT22;24320;56.980;24.336;2023-08-06T09:09:01;28.10;99.90
28654;DHT22;24320;56.980;24.336;2023-08-06T09:11:31;28.20;99.90
28654;DHT22;24320;56.980;24.336;2023-08-06T09:14:08;28.30;99.90
28654;DHT22;24320;56.980;24.336;2023-08-06T09:16:36;28.30;99.90
28654;DHT22;24320;56.980;24.336;2023-08-06T09:19:13;28.20;99.90
28654;DHT22;24320;56.980;24.336;2023-08-06T09:21:42;28.20;99.90
28654;DHT22;24320;56.980;24.336;2023-08-06T09:24:11;28.30;99.90
28654;DHT22;24320;56.980;24.336;2023-08-06T09:26:40;28.50;99.90
28654;DHT22;24320;56.980;24.336;2023-08-06T09:29:08;28.70;99.90
28654;DHT22;24320;56.980;24.336;2023-08-06T09:31:47;28.80;99.90
28654;DHT22;24320;56.980;24.336;2023-08-06T09:34:19;28.80;99.90
28654;DHT22;24320;56.980;24.336;2023-08-06T09:36:48;28.90;99.90
28654;DHT22;24320;56.980;24.336;2023-08-06T09:39:16;29.00;99.90
28654;DHT22;24320;56.980;24.336;2023-08-06T09:41:44;29.00;99.90
28654;DHT22;24320;56.980;24.336;2023-08-06T09:44:21;29.00;99.90
28654;DHT22;24320;56.980;24.336;2023-08-06T09:46:51;28.90;99.90
28654;DHT22;24320;56.980;24.336;2023-08-06T09:49:19;28.80;99.90
28654;DHT22;24320;56.980;24.336;2023-08-06T09:51:51;28.80;99.90
28654;DHT22;24320;56.980;24.336;2023-08-06T09:54:19;28.90;99.90
28654;DHT22;24320;56.980;24.336;2023-08-06T09:56:53;29.00;99.90
28654;DHT22;24320;56.980;24.336;2023-08-06T09:59:21;29.10;99.90
28654;DHT22;24320;56.980;24.336;2023-08-06T10:01:49;29.20;99.90
28654;DHT22;24320;56.980;24.336;2023-08-06T10:04:16;29.30;99.90
28654;DHT22;24320;56.980;24.336;2023-08-06T10:06:50;29.50;99.90
28654;DHT22;24320;56.980;24.336;2023-08-06T10:09:17;29.50;99.90
28654;DHT22;24320;56.980;24.336;2023-08-06T10:11:51;29.60;99.90
28654;DHT22;24320;56.980;24.336;2023-08-06T10:14:27;29.70;99.90
28654;DHT22;24320;56.980;24.336;2023-08-06T10:16:57;29.80;99.90
28654;DHT22;24320;56.980;24.336;2023-08-06T10:19:25;29.90;99.90
28654;DHT22;24320;56.980;24.336;2023-08-06T10:22:09;30.00;99.90
28654;DHT22;24320;56.980;24.336;2023-08-06T10:25:05;30.20;99.90
28654;DHT22;24320;56.980;24.336;2023-08-06T10:30:23;30.30;99.90
28654;DHT22;24320;56.980;24.336;2023-08-06T10:33:03;30.40;99.90
28654;DHT22;24320;56.980;24.336;2023-08-06T10:35:50;30.50;99.90
28654;DHT22;24320;56.980;24.336;2023-08-06T10:38:20;30.60;99.90
28654;DHT22;24320;56.980;24.336;2023-08-06T10:43:33;30.60;99.90
28654;DHT22;24320;56.980;24.336;2023-08-06T10:46:09;30.60;99.90
28654;DHT22;24320;56.980;24.336;2023-08-06T10:48:39;30.60;99.90
28654;DHT22;24320;56.980;24.336;2023-08-06T10:51:11;30.50;99.90
28654;DHT22;24320;56.980;24.336;2023-08-06T10:53:42;30.50;99.90
28654;DHT22;24320;56.980;24.336;2023-08-06T10:58:41;30.70;99.90
28654;DHT22;24320;56.980;24.336;2023-08-06T11:01:09;30.70;99.90
28654;DHT22;24320;56.980;24.336;2023-08-06T11:03:38;30.70;99.90
28654;DHT22;24320;56.980;24.336;2023-08-06T11:06:07;30.60;99.90
28654;DHT22;24320;56.980;24.336;2023-08-06T11:08:36;30.70;99.90
28654;DHT22;24320;56.980;24.336;2023-08-06T11:11:14;30.70;99.90
28654;DHT22;24320;56.980;24.336;2023-08-06T11:13:49;30.80;99.90
28654;DHT22;24320;56.980;24.336;2023-08-06T11:16:22;30.80;99.90
28654;DHT22;24320;56.980;24.336;2023-08-06T11:18:52;30.70;99.90
28654;DHT22;24320;56.980;24.336;2023-08-06T11:21:21;30.80;99.90
28654;DHT22;24320;56.980;24.336;2023-08-06T11:23:49;30.80;99.90
28654;DHT22;24320;56.980;24.336;2023-08-06T11:26:21;30.80;99.90
28654;DHT22;24320;56.980;24.336;2023-08-06T11:28:50;30.80;99.90
28654;DHT22;24320;56.980;24.336;2023-08-06T11:31:23;30.70;99.90
28654;DHT22;24320;56.980;24.336;2023-08-06T11:33:54;30.80;99.90
28654;DHT22;24320;56.980;24.336;2023-08-06T11:36:36;30.90;99.90
28654;DHT22;24320;56.980;24.336;2023-08-06T11:39:06;31.00;99.90
28654;DHT22;24320;56.980;24.336;2023-08-06T11:41:36;31.00;99.90
28654;DHT22;24320;56.980;24.336;2023-08-06T11:44:10;31.00;99.90
28654;DHT22;24320;56.980;24.336;2023-08-06T11:46:55;31.20;99.90
28654;DHT22;24320;56.980;24.336;2023-08-06T11:49:41;31.50;99.90
28654;DHT22;24320;56.980;24.336;2023-08-06T11:52:17;31.70;99.90
28654;DHT22;24320;56.980;24.336;2023-08-06T11:54:47;31.80;99.90
28654;DHT22;24320;56.980;24.336;2023-08-06T11:57:15;32.00;99.90
28654;DHT22;24320;56.980;24.336;2023-08-06T11:59:44;32.20;99.90
28654;DHT22;24320;56.980;24.336;2023-08-06T12:02:11;32.30;99.90
28654;DHT22;24320;56.980;24.336;2023-08-06T12:05:02;32.40;99.90
28654;DHT22;24320;56.980;24.336;2023-08-06T12:07:30;32.40;99.90
28654;DHT22;24320;56.980;24.336;2023-08-06T12:09:58;32.40;99.90
28654;DHT22;24320;56.980;24.336;2023-08-06T12:12:25;32.40;99.90
28654;DHT22;24320;56.980;24.336;2023-08-06T12:14:52;32.20;99.90
28654;DHT22;24320;56.980;24.336;2023-08-06T12:17:19;32.10;99.90
28654;DHT22;24320;56.980;24.336;2023-08-06T12:19:46;31.90;99.90
28654;DHT22;24320;56.980;24.336;2023-08-06T12:22:14;31.80;99.90
28654;DHT22;24320;56.980;24.336;2023-08-06T12:24:42;31.70;99.90
28654;DHT22;24320;56.980;24.336;2023-08-06T12:27:10;31.70;99.90
28654;DHT22;24320;56.980;24.336;2023-08-06T12:29:41;31.80;99.90
28654;DHT22;24320;56.980;24.336;2023-08-06T12:32:09;32.00;99.90
28654;DHT22;24320;56.980;24.336;2023-08-06T12:34:38;32.00;99.90
28654;DHT22;24320;56.980;24.336;2023-08-06T12:37:19;32.10;99.90
28654;DHT22;24320;56.980;24.336;2023-08-06T12:39:46;31.90;99.90
28654;DHT22;24320;56.980;24.336;2023-08-06T12:42:13;31.80;99.90
28654;DHT22;24320;56.980;24.336;2023-08-06T12:44:40;31.80;99.90
28654;DHT22;24320;56.980;24.336;2023-08-06T12:47:08;31.70;99.90
28654;DHT22;24320;56.980;24.336;2023-08-06T12:49:35;31.70;99.90
28654;DHT22;24320;56.980;24.336;2023-08-06T12:52:02;31.80;99.90
28654;DHT22;24320;56.980;24.336;2023-08-06T12:54:31;31.80;99.90
28654;DHT22;24320;56.980;24.336;2023-08-06T12:57:04;31.70;99.90
28654;DHT22;24320;56.980;24.336;2023-08-06T12:59:31;31.70;99.90
28654;DHT22;24320;56.980;24.336;2023-08-06T13:04:39;31.70;99.90
28654;DHT22;24320;56.980;24.336;2023-08-06T13:07:06;31.70;99.90
28654;DHT22;24320;56.980;24.336;2023-08-06T13:09:33;31.70;99.90
28654;DHT22;24320;56.980;24.336;2023-08-06T13:12:00;31.60;99.90
28654;DHT22;24320;56.980;24.336;2023-08-06T13:14:32;31.60;99.90
28654;DHT22;24320;56.980;24.336;2023-08-06T13:16:59;31.60;99.90
28654;DHT22;24320;56.980;24.336;2023-08-06T13:19:26;31.50;99.90
28654;DHT22;24320;56.980;24.336;2023-08-06T13:22:04;31.60;99.90
28654;DHT22;24320;56.980;24.336;2023-08-06T13:24:32;31.60;99.90
28654;DHT22;24320;56.980;24.336;2023-08-06T13:26:59;31.60;99.90
28654;DHT22;24320;56.980;24.336;2023-08-06T13:29:26;31.60;99.90
28654;DHT22;24320;56.980;24.336;2023-08-06T13:31:54;31.60;99.90
28654;DHT22;24320;56.980;24.336;2023-08-06T13:34:21;31.50;99.90
28654;DHT22;24320;56.980;24.336;2023-08-06T13:36:48;31.50;99.90
28654;DHT22;24320;56.980;24.336;2023-08-06T13:39:16;31.40;99.90
28654;DHT22;24320;56.980;24.336;2023-08-06T13:41:44;31.40;99.90
28654;DHT22;24320;56.980;24.336;2023-08-06T13:44:11;31.40;99.90
28654;DHT22;24320;56.980;24.336;2023-08-06T13:46:41;31.30;99.90
28654;DHT22;24320;56.980;24.336;2023-08-06T13:49:08;31.30;99.90
28654;DHT22;24320;56.980;24.336;2023-08-06T13:51:35;31.40;99.90
28654;DHT22;24320;56.980;24.336;2023-08-06T13:54:02;31.50;99.90
28654;DHT22;24320;56.980;24.336;2023-08-06T13:56:29;31.50;99.90
28654;DHT22;24320;56.980;24.336;2023-08-06T13:58:59;31.50;99.90
28654;DHT22;24320;56.980;24.336;2023-08-06T14:01:25;31.60;99.90
28654;DHT22;24320;56.980;24.336;2023-08-06T14:04:08;31.60;99.90
28654;DHT22;24320;56.980;24.336;2023-08-06T14:06:36;31.50;99.90
28654;DHT22;24320;56.980;24.336;2023-08-06T14:09:03;31.50;99.90
28654;DHT22;24320;56.980;24.336;2023-08-06T14:11:30;31.40;99.90
28654;DHT22;24320;56.980;24.336;2023-08-06T14:13:57;31.40;99.90
28654;DHT22;24320;56.980;24.336;2023-08-06T14:16:26;31.40;99.90
28654;DHT22;24320;56.980;24.336;2023-08-06T14:18:53;31.40;99.90
28654;DHT22;24320;56.980;24.336;2023-08-06T14:21:20;31.50;99.90
28654;DHT22;24320;56.980;24.336;2023-08-06T14:23:48;31.50;99.90
28654;DHT22;24320;56.980;24.336;2023-08-06T14:26:15;31.60;99.90
28654;DHT22;24320;56.980;24.336;2023-08-06T14:28:42;31.60;99.90
28654;DHT22;24320;56.980;24.336;2023-08-06T14:31:09;31.70;99.90
28654;DHT22;24320;56.980;24.336;2023-08-06T14:33:36;31.70;99.90
28654;DHT22;24320;56.980;24.336;2023-08-06T14:36:03;31.70;99.90
28654;DHT22;24320;56.980;24.336;2023-08-06T14:38:30;31.70;99.90
28654;DHT22;24320;56.980;24.336;2023-08-06T14:40:57;31.60;99.90
28654;DHT22;24320;56.980;24.336;2023-08-06T14:43:25;31.40;99.90
28654;DHT22;24320;56.980;24.336;2023-08-06T14:45:52;31.20;99.90
28654;DHT22;24320;56.980;24.336;2023-08-06T14:48:19;31.10;99.90
28654;DHT22;24320;56.980;24.336;2023-08-06T14:50:46;30.90;99.90
28654;DHT22;24320;56.980;24.336;2023-08-06T14:53:13;30.80;99.90
28654;DHT22;24320;56.980;24.336;2023-08-06T14:55:41;30.70;99.90
28654;DHT22;24320;56.980;24.336;2023-08-06T14:58:08;30.60;99.90
28654;DHT22;24320;56.980;24.336;2023-08-06T15:00:35;30.50;99.90
28654;DHT22;24320;56.980;24.336;2023-08-06T15:03:02;30.40;99.90
28654;DHT22;24320;56.980;24.336;2023-08-06T15:05:30;30.30;99.90
28654;DHT22;24320;56.980;24.336;2023-08-06T15:07:57;30.40;99.90
28654;DHT22;24320;56.980;24.336;2023-08-06T15:10:24;30.40;99.90
28654;DHT22;24320;56.980;24.336;2023-08-06T15:12:54;30.40;99.90
28654;DHT22;24320;56.980;24.336;2023-08-06T15:15:21;30.50;99.90
28654;DHT22;24320;56.980;24.336;2023-08-06T15:17:51;30.50;99.90
28654;DHT22;24320;56.980;24.336;2023-08-06T15:20:19;30.60;99.90
28654;DHT22;24320;56.980;24.336;2023-08-06T15:22:46;30.60;99.90
28654;DHT22;24320;56.980;24.336;2023-08-06T15:25:13;30.70;99.90
28654;DHT22;24320;56.980;24.336;2023-08-06T15:27:40;30.80;99.90
28654;DHT22;24320;56.980;24.336;2023-08-06T15:30:07;30.90;99.90
28654;DHT22;24320;56.980;24.336;2023-08-06T15:32:34;30.90;99.90
28654;DHT22;24320;56.980;24.336;2023-08-06T15:35:01;30.90;99.90
28654;DHT22;24320;56.980;24.336;2023-08-06T15:37:30;30.90;99.90
28654;DHT22;24320;56.980;24.336;2023-08-06T15:39:58;30.80;99.90
28654;DHT22;24320;56.980;24.336;2023-08-06T15:42:25;30.80;99.90
28654;DHT22;24320;56.980;24.336;2023-08-06T15:44:52;30.90;99.90
28654;DHT22;24320;56.980;24.336;2023-08-06T15:47:19;30.80;99.90